createdAt,value
2022-12-27T00:00:10.735Z,58.25
2022-12-27T00:02:44.293Z,58.31
2022-12-27T00:05:13.247Z,57.72
2022-12-27T00:07:41.467Z,57.46
2022-12-27T00:10:10.396Z,57.48
2022-12-27T00:12:38.433Z,57.70
2022-12-27T00:15:07.057Z,57.44
2022-12-27T00:17:34.799Z,58.67
2022-12-27T00:20:10.334Z,57.50
2022-12-27T00:22:40.769Z,58.28
2022-12-27T00:25:09.914Z,57.80
2022-12-27T00:27:38.525Z,57.00
2022-12-27T00:30:07.517Z,57.47
2022-12-27T00:32:35.693Z,57.83
2022-12-27T00:35:03.649Z,56.44
2022-12-27T00:37:31.360Z,56.69
2022-12-27T00:40:00.232Z,57.25
2022-12-27T00:42:28.001Z,56.21
2022-12-27T00:44:55.714Z,56.29
2022-12-27T00:47:23.492Z,56.63
2022-12-27T00:49:51.235Z,56.80
2022-12-27T00:52:18.952Z,57.00
2022-12-27T00:54:46.683Z,56.34
2022-12-27T00:57:14.452Z,55.99
2022-12-27T00:59:42.126Z,56.13
2022-12-27T01:02:09.934Z,56.38
2022-12-27T01:04:37.725Z,56.78
2022-12-27T01:07:05.548Z,57.21
2022-12-27T01:09:33.289Z,57.14
2022-12-27T01:12:01.031Z,57.80
2022-12-27T01:14:28.763Z,56.35
2022-12-27T01:16:56.549Z,55.26
2022-12-27T01:19:24.679Z,55.49
2022-12-27T01:21:52.407Z,56.33
2022-12-27T01:24:20.338Z,55.27
2022-12-27T01:26:48.127Z,55.00
2022-12-27T01:29:15.879Z,55.42
2022-12-27T01:31:44.233Z,54.72
2022-12-27T01:34:12.029Z,55.02
2022-12-27T01:36:39.787Z,54.79
2022-12-27T01:39:08.523Z,55.05
2022-12-27T01:41:58.044Z,55.04
2022-12-27T01:44:41.712Z,55.53
2022-12-27T01:47:34.884Z,55.30
2022-12-27T01:50:11.367Z,55.22
2022-12-27T01:53:00.344Z,55.11
2022-12-27T01:55:59.903Z,55.02
2022-12-27T01:58:44.604Z,55.42
2022-12-27T02:01:22.548Z,55.99
2022-12-27T02:04:12.593Z,55.73
2022-12-27T02:06:41.349Z,55.46
2022-12-27T02:09:38.401Z,56.29
2022-12-27T02:12:09.372Z,56.27
2022-12-27T02:14:41.808Z,55.72
2022-12-27T02:17:29.488Z,56.89
2022-12-27T02:20:24.741Z,56.23
2022-12-27T02:23:54.617Z,56.40
2022-12-27T02:27:04.973Z,57.09
2022-12-27T02:30:07.332Z,56.02
2022-12-27T02:32:49.359Z,55.45
2022-12-27T02:35:36.064Z,55.70
2022-12-27T02:38:16.512Z,55.33
2022-12-27T02:41:04.220Z,54.88
2022-12-27T02:43:51.592Z,54.35
2022-12-27T02:46:47.182Z,54.89
2022-12-27T02:49:44.440Z,54.50
2022-12-27T02:53:01.888Z,54.65
2022-12-27T02:56:11.461Z,54.61
2022-12-27T02:59:32.461Z,54.27
2022-12-27T03:02:44.669Z,54.33
2022-12-27T03:06:11.578Z,54.19
2022-12-27T03:08:59.231Z,53.89
2022-12-27T03:11:50.820Z,53.61
2022-12-27T03:14:52.704Z,53.64
2022-12-27T03:17:56.773Z,54.38
2022-12-27T03:20:43.439Z,53.85
2022-12-27T03:23:31.120Z,53.60
2022-12-27T03:26:01.751Z,53.76
2022-12-27T03:28:50.425Z,54.25
2022-12-27T03:31:51.834Z,53.82
2022-12-27T03:34:32.125Z,53.95
2022-12-27T03:37:45.645Z,53.65
2022-12-27T03:40:40.070Z,53.36
2022-12-27T03:43:16.380Z,53.88
2022-12-27T03:46:16.631Z,53.68
2022-12-27T03:49:14.619Z,53.69
2022-12-27T03:52:08.171Z,52.96
2022-12-27T03:54:41.271Z,53.51
2022-12-27T03:57:14.459Z,53.75
2022-12-27T03:59:42.391Z,53.80
2022-12-27T04:02:10.720Z,53.20
2022-12-27T04:04:38.666Z,53.74
2022-12-27T04:07:07.266Z,53.50
2022-12-27T04:09:53.617Z,53.87
2022-12-27T04:12:39.643Z,53.90
2022-12-27T04:15:26.309Z,53.04
2022-12-27T04:18:12.561Z,53.71
2022-12-27T04:21:00.471Z,53.35
2022-12-27T04:23:46.760Z,54.20
2022-12-27T04:26:33.590Z,53.98
2022-12-27T04:29:20.010Z,53.77
2022-12-27T04:32:06.685Z,53.63
2022-12-27T04:34:46.480Z,53.79
2022-12-27T04:37:19.755Z,53.73
2022-12-27T04:40:06.751Z,53.24
2022-12-27T04:42:53.260Z,53.59
2022-12-27T04:45:39.910Z,53.67
2022-12-27T04:48:33.518Z,53.12
2022-12-27T04:51:20.185Z,53.73
2022-12-27T04:54:06.794Z,53.14
2022-12-27T04:56:34.633Z,53.12
2022-12-27T04:59:21.005Z,52.90
2022-12-27T05:02:04.784Z,52.90
2022-12-27T05:04:36.426Z,52.70
2022-12-27T05:07:46.415Z,53.33
2022-12-27T05:10:32.613Z,53.26
2022-12-27T05:13:18.868Z,52.59
2022-12-27T05:15:46.664Z,53.06
2022-12-27T05:18:14.426Z,52.79
2022-12-27T05:20:42.179Z,52.73
2022-12-27T05:23:28.364Z,52.86
2022-12-27T05:25:56.108Z,53.05
2022-12-27T05:28:23.916Z,53.06
2022-12-27T05:30:51.697Z,52.95
2022-12-27T05:33:19.536Z,53.18
2022-12-27T05:35:47.301Z,52.85
2022-12-27T05:38:15.068Z,52.82
2022-12-27T05:40:42.772Z,52.26
2022-12-27T05:43:10.512Z,53.25
2022-12-27T05:45:38.214Z,52.51
2022-12-27T05:48:06.284Z,52.51
2022-12-27T05:50:34.004Z,53.07
2022-12-27T05:53:12.101Z,52.66
2022-12-27T05:55:40.163Z,53.10
2022-12-27T05:58:07.999Z,53.18
2022-12-27T06:00:35.760Z,53.36
2022-12-27T06:03:04.109Z,52.94
2022-12-27T06:05:32.118Z,53.08
2022-12-27T06:07:59.909Z,53.59
2022-12-27T06:10:27.677Z,53.88
2022-12-27T06:12:55.493Z,53.16
2022-12-27T06:15:23.181Z,52.84
2022-12-27T06:17:50.928Z,53.36
2022-12-27T06:20:19.143Z,53.44
2022-12-27T06:22:47.161Z,53.01
2022-12-27T06:25:15.028Z,52.55
2022-12-27T06:27:42.899Z,53.36
2022-12-27T06:30:12.327Z,53.56
2022-12-27T06:32:40.161Z,53.51
2022-12-27T06:35:08.653Z,52.89
2022-12-27T06:37:36.424Z,53.32
2022-12-27T06:40:04.782Z,53.01
2022-12-27T06:42:32.519Z,52.86
2022-12-27T06:45:00.266Z,53.00
2022-12-27T06:47:27.985Z,53.16
2022-12-27T06:49:55.927Z,52.70
2022-12-27T06:52:23.652Z,53.21
2022-12-27T06:54:51.353Z,52.69
2022-12-27T06:57:19.141Z,53.08
2022-12-27T06:59:52.376Z,52.39
2022-12-27T07:02:21.874Z,52.67
2022-12-27T07:04:49.707Z,53.13
2022-12-27T07:07:17.466Z,52.68
2022-12-27T07:09:46.326Z,52.69
2022-12-27T07:12:14.081Z,53.42
2022-12-27T07:14:41.850Z,53.11
2022-12-27T07:17:09.614Z,52.92
2022-12-27T07:19:37.349Z,52.87
2022-12-27T07:22:05.124Z,52.41
2022-12-27T07:24:33.410Z,52.59
2022-12-27T07:27:05.306Z,52.74
2022-12-27T07:29:32.994Z,52.39
2022-12-27T07:32:00.768Z,52.63
2022-12-27T07:34:28.501Z,52.17
2022-12-27T07:36:56.219Z,52.61
2022-12-27T07:39:24.002Z,52.73
2022-12-27T07:41:51.865Z,52.35
2022-12-27T07:44:21.319Z,53.06
2022-12-27T07:46:49.106Z,52.51
2022-12-27T07:49:18.124Z,52.48
2022-12-27T07:51:46.023Z,52.25
2022-12-27T07:54:13.788Z,52.27
2022-12-27T07:56:41.534Z,52.11
2022-12-27T07:59:13.360Z,52.21
2022-12-27T08:02:00.133Z,52.52
2022-12-27T08:04:28.059Z,52.23
2022-12-27T08:07:02.953Z,52.01
2022-12-27T08:09:36.604Z,52.03
2022-12-27T08:12:07.318Z,52.50
2022-12-27T08:14:35.097Z,52.11
2022-12-27T08:17:20.826Z,51.85
2022-12-27T08:19:54.563Z,52.10
2022-12-27T08:22:23.723Z,52.23
2022-12-27T08:24:51.485Z,51.64
2022-12-27T08:27:24.411Z,51.84
2022-12-27T08:29:52.165Z,51.64
2022-12-27T08:32:19.981Z,51.52
2022-12-27T08:34:48.213Z,52.30
2022-12-27T08:37:16.025Z,52.32
2022-12-27T08:39:43.725Z,51.72
2022-12-27T08:42:13.214Z,51.86
2022-12-27T08:44:40.936Z,51.43
2022-12-27T08:47:08.776Z,52.25
2022-12-27T08:49:36.481Z,51.65
2022-12-27T08:52:04.486Z,51.63
2022-12-27T08:54:32.236Z,52.21
2022-12-27T08:56:59.984Z,51.69
2022-12-27T08:59:27.688Z,52.10
2022-12-27T09:01:55.595Z,51.86
2022-12-27T09:04:23.409Z,51.78
2022-12-27T09:06:51.141Z,51.97
2022-12-27T09:09:18.948Z,52.00
2022-12-27T09:11:46.959Z,51.65
2022-12-27T09:14:14.664Z,52.00
2022-12-27T09:16:42.413Z,51.41
2022-12-27T09:19:10.603Z,51.65
2022-12-27T09:21:41.992Z,51.29
2022-12-27T09:24:14.446Z,51.40
2022-12-27T09:26:42.241Z,51.52
2022-12-27T09:29:11.083Z,51.28
2022-12-27T09:31:38.855Z,51.91
2022-12-27T09:34:06.558Z,51.51
2022-12-27T09:36:34.316Z,51.90
2022-12-27T09:39:02.002Z,51.83
2022-12-27T09:45:00.614Z,51.05
2022-12-27T09:47:55.814Z,51.48
2022-12-27T09:50:48.159Z,51.23
2022-12-27T09:53:44.381Z,51.41
2022-12-27T09:56:20.701Z,51.07
2022-12-27T09:58:57.899Z,51.48
2022-12-27T10:01:40.491Z,51.51
2022-12-27T10:04:14.112Z,51.38
2022-12-27T10:06:50.894Z,51.04
2022-12-27T10:09:45.676Z,51.29
2022-12-27T10:12:37.714Z,51.13
2022-12-27T10:15:49.059Z,51.23
2022-12-27T10:18:45.070Z,50.69
2022-12-27T10:21:23.438Z,50.81
2022-12-27T10:24:17.116Z,50.89
2022-12-27T10:26:44.976Z,51.06
2022-12-27T10:29:25.168Z,50.92
2022-12-27T10:31:53.471Z,50.52
2022-12-27T10:34:24.423Z,50.59
2022-12-27T10:36:53.495Z,50.71
2022-12-27T10:39:30.468Z,50.62
2022-12-27T10:42:46.168Z,50.93
2022-12-27T10:45:39.626Z,50.89
2022-12-27T10:48:28.863Z,50.42
2022-12-27T10:51:10.824Z,50.20
2022-12-27T10:53:59.176Z,50.54
2022-12-27T10:56:39.244Z,50.16
2022-12-27T10:59:28.034Z,50.22
2022-12-27T11:02:01.851Z,50.10
2022-12-27T11:04:31.729Z,50.31
2022-12-27T11:06:59.987Z,50.16
2022-12-27T11:09:50.197Z,50.15
2022-12-27T11:12:33.048Z,49.80
2022-12-27T11:15:11.589Z,49.57
2022-12-27T11:17:56.347Z,49.77
2022-12-27T11:20:38.570Z,49.50
2022-12-27T11:23:15.745Z,49.69
2022-12-27T11:25:59.621Z,50.03
2022-12-27T11:28:47.931Z,49.73
2022-12-27T11:31:19.451Z,49.64
2022-12-27T11:33:52.664Z,49.54
2022-12-27T11:36:27.837Z,49.35
2022-12-27T11:38:55.900Z,49.48
2022-12-27T11:41:54.505Z,49.99
2022-12-27T11:44:31.729Z,49.44
2022-12-27T11:47:35.857Z,48.79
2022-12-27T11:50:32.356Z,49.63
2022-12-27T11:53:22.407Z,49.21
2022-12-27T11:56:08.578Z,49.84
2022-12-27T11:59:03.902Z,49.57
2022-12-27T12:02:15.719Z,49.45
2022-12-27T12:05:14.039Z,49.20
2022-12-27T12:08:18.576Z,47.86
2022-12-27T12:11:00.892Z,48.25
2022-12-27T12:14:21.284Z,47.93
2022-12-27T12:17:14.287Z,48.02
2022-12-27T12:19:59.843Z,48.43
2022-12-27T12:23:15.222Z,47.87
2022-12-27T12:26:22.540Z,48.17
2022-12-27T12:29:16.034Z,48.21
2022-12-27T12:32:19.981Z,47.10
2022-12-27T12:35:18.722Z,47.75
2022-12-27T12:38:11.686Z,47.62
2022-12-27T12:40:58.008Z,47.07
2022-12-27T12:43:56.954Z,47.07
2022-12-27T12:46:28.895Z,46.65
2022-12-27T12:49:26.011Z,47.29
2022-12-27T12:51:59.596Z,46.66
2022-12-27T12:54:58.099Z,47.43
2022-12-27T12:58:07.001Z,46.91
2022-12-27T13:00:58.561Z,46.66
2022-12-27T13:03:49.885Z,46.63
2022-12-27T13:06:47.628Z,46.92
2022-12-27T13:09:59.602Z,46.42
2022-12-27T13:13:08.237Z,46.57
2022-12-27T13:16:05.385Z,46.44
2022-12-27T13:18:58.210Z,46.66
2022-12-27T13:22:01.132Z,46.65
2022-12-27T13:24:47.006Z,46.40
2022-12-27T13:27:27.929Z,46.43
2022-12-27T13:30:22.007Z,46.59
2022-12-27T13:33:14.539Z,46.11
2022-12-27T13:36:01.129Z,46.19
2022-12-27T13:38:40.575Z,46.51
2022-12-27T13:41:52.706Z,46.67
2022-12-27T13:44:50.825Z,47.16
2022-12-27T13:47:24.176Z,46.93
2022-12-27T13:50:45.600Z,47.09
2022-12-27T13:53:50.257Z,47.52
2022-12-27T13:59:51.185Z,47.05
2022-12-27T14:02:38.463Z,46.14
2022-12-27T14:05:38.263Z,46.25
2022-12-27T14:08:28.745Z,46.00
2022-12-27T14:11:00.871Z,46.80
2022-12-27T14:13:49.591Z,46.13
2022-12-27T14:16:36.580Z,45.80
2022-12-27T14:19:31.911Z,46.71
2022-12-27T14:22:30.289Z,46.74
2022-12-27T14:25:28.182Z,46.38
2022-12-27T14:28:15.524Z,46.63
2022-12-27T14:31:32.986Z,46.20
2022-12-27T14:34:29.036Z,46.39
2022-12-27T14:37:55.107Z,46.55
2022-12-27T14:41:03.590Z,46.14
2022-12-27T14:44:10.948Z,46.11
2022-12-27T14:47:06.609Z,46.56
2022-12-27T14:50:21.448Z,46.43
2022-12-27T14:53:11.041Z,46.13
2022-12-27T14:56:01.948Z,45.68
2022-12-27T14:58:47.549Z,45.70
2022-12-27T15:02:03.453Z,46.20
2022-12-27T15:04:54.864Z,45.78
2022-12-27T15:07:43.025Z,45.66
2022-12-27T15:10:48.494Z,45.63
2022-12-27T15:13:48.792Z,46.07
2022-12-27T15:17:01.427Z,46.03
2022-12-27T15:20:09.938Z,46.08
2022-12-27T15:23:04.101Z,46.25
2022-12-27T15:26:27.302Z,46.48
2022-12-27T15:29:32.540Z,46.54
2022-12-27T15:32:52.696Z,46.38
2022-12-27T15:35:57.562Z,46.26
2022-12-27T15:38:55.051Z,46.77
2022-12-27T15:41:27.406Z,46.60
2022-12-27T15:44:23.060Z,46.69
2022-12-27T15:47:16.294Z,46.63
2022-12-27T15:50:40.545Z,46.87
2022-12-27T15:53:48.561Z,46.85
2022-12-27T15:56:25.524Z,47.02
2022-12-27T15:59:52.813Z,47.34
2022-12-27T16:02:46.230Z,47.12
2022-12-27T16:05:41.154Z,47.10
2022-12-27T16:08:08.750Z,47.02
2022-12-27T16:10:42.264Z,47.11
2022-12-27T16:13:09.911Z,47.34
2022-12-27T16:15:51.013Z,47.44
2022-12-27T16:18:21.621Z,47.22
2022-12-27T16:20:56.690Z,47.12
2022-12-27T16:23:31.783Z,47.18
2022-12-27T16:26:06.740Z,47.27
2022-12-27T16:28:37.499Z,47.00
2022-12-27T16:31:12.633Z,47.12
2022-12-27T16:33:41.916Z,47.25
2022-12-27T16:36:15.111Z,47.03
2022-12-27T16:38:46.222Z,47.15
2022-12-27T16:41:41.009Z,47.13
2022-12-27T16:44:28.158Z,47.18
2022-12-27T16:46:56.840Z,47.12
2022-12-27T16:50:02.964Z,46.79
2022-12-27T16:52:43.921Z,47.21
2022-12-27T16:55:51.369Z,47.19
2022-12-27T16:58:31.111Z,47.14
2022-12-27T17:01:02.666Z,47.34
2022-12-27T17:03:35.702Z,47.33
2022-12-27T17:06:32.725Z,47.35
2022-12-27T17:09:10.413Z,47.38
2022-12-27T17:11:50.525Z,47.36
2022-12-27T17:14:41.833Z,47.48
2022-12-27T17:17:21.146Z,47.51
2022-12-27T17:20:07.579Z,47.31
2022-12-27T17:22:39.538Z,47.55
2022-12-27T17:25:16.437Z,47.42
2022-12-27T17:28:05.440Z,47.80
2022-12-27T17:31:02.629Z,47.83
2022-12-27T17:33:57.268Z,47.46
2022-12-27T17:36:43.570Z,47.61
2022-12-27T17:39:36.066Z,47.59
2022-12-27T17:42:38.564Z,47.21
2022-12-27T17:45:40.218Z,47.59
2022-12-27T17:48:23.158Z,47.85
2022-12-27T17:50:54.686Z,47.61
2022-12-27T17:53:42.591Z,47.96
2022-12-27T17:56:28.668Z,47.91
2022-12-27T17:59:26.414Z,48.00
2022-12-27T18:02:00.571Z,48.29
2022-12-27T18:04:33.750Z,48.19
2022-12-27T18:07:06.703Z,47.96
2022-12-27T18:09:46.362Z,48.10
2022-12-27T18:12:26.855Z,48.21
2022-12-27T18:15:04.996Z,48.36
2022-12-27T18:17:54.624Z,48.17
2022-12-27T18:20:31.254Z,48.43
2022-12-27T18:23:01.688Z,48.47
2022-12-27T18:25:44.041Z,48.42
2022-12-27T18:28:30.417Z,48.60
2022-12-27T18:31:16.002Z,48.40
2022-12-27T18:33:55.044Z,48.48
2022-12-27T18:36:47.077Z,48.51
2022-12-27T18:39:46.807Z,48.74
2022-12-27T18:42:43.747Z,48.62
2022-12-27T18:45:31.103Z,48.70
2022-12-27T18:48:02.116Z,49.04
2022-12-27T18:50:34.836Z,48.83
2022-12-27T18:53:22.631Z,49.19
2022-12-27T18:56:03.895Z,49.20
2022-12-27T18:58:35.789Z,49.12
2022-12-27T19:01:38.471Z,49.38
2022-12-27T19:04:15.284Z,49.36
2022-12-27T19:06:45.977Z,49.34
2022-12-27T19:09:39.757Z,49.28
2022-12-27T19:12:34.765Z,48.93
2022-12-27T19:15:12.707Z,49.09
2022-12-27T19:17:43.290Z,49.43
2022-12-27T19:20:30.711Z,49.51
2022-12-27T19:23:02.599Z,49.78
2022-12-27T19:25:38.199Z,49.77
2022-12-27T19:28:11.580Z,49.85
2022-12-27T19:30:47.079Z,49.97
2022-12-27T19:33:27.358Z,50.24
2022-12-27T19:35:56.478Z,49.96
2022-12-27T19:38:27.791Z,50.26
2022-12-27T19:41:03.982Z,49.96
2022-12-27T19:43:41.841Z,50.01
2022-12-27T19:46:12.521Z,50.18
2022-12-27T19:48:41.073Z,50.13
2022-12-27T19:51:18.652Z,49.74
2022-12-27T19:53:57.641Z,50.18
2022-12-27T19:56:25.842Z,49.59
2022-12-27T19:58:53.645Z,49.90
2022-12-27T20:01:21.545Z,49.89
2022-12-27T20:03:49.275Z,50.10
2022-12-27T20:06:20.776Z,50.17
2022-12-27T20:08:51.797Z,50.49
2022-12-27T20:11:22.807Z,50.81
2022-12-27T20:13:50.977Z,50.70
2022-12-27T20:16:20.492Z,50.71
2022-12-27T20:18:48.300Z,50.94
2022-12-27T20:21:19.356Z,50.70
2022-12-27T20:23:47.734Z,51.05
2022-12-27T20:26:21.587Z,50.79
2022-12-27T20:28:50.389Z,51.01
2022-12-27T20:31:21.268Z,50.71
2022-12-27T20:33:55.023Z,50.74
2022-12-27T20:36:24.169Z,50.91
2022-12-27T20:38:51.901Z,50.65
2022-12-27T20:41:22.901Z,50.64
2022-12-27T20:43:55.894Z,50.75
2022-12-27T20:46:24.915Z,50.94
2022-12-27T20:48:55.230Z,50.56
2022-12-27T20:51:27.555Z,50.90
2022-12-27T20:53:58.336Z,50.42
2022-12-27T20:56:26.423Z,50.49
2022-12-27T20:58:54.310Z,50.50
2022-12-27T21:01:25.812Z,50.72
2022-12-27T21:03:57.293Z,50.57
2022-12-27T21:06:28.326Z,50.63
2022-12-27T21:08:58.261Z,50.59
2022-12-27T21:11:31.495Z,50.52
2022-12-27T21:14:02.843Z,50.34
2022-12-27T21:16:34.479Z,50.52
2022-12-27T21:19:04.673Z,50.78
2022-12-27T21:21:38.249Z,50.73
2022-12-27T21:24:08.231Z,50.81
2022-12-27T21:26:38.399Z,50.77
2022-12-27T21:29:09.346Z,50.60
2022-12-27T21:31:38.620Z,50.42
2022-12-27T21:34:07.902Z,50.72
2022-12-27T21:36:36.928Z,51.15
2022-12-27T21:39:07.588Z,50.84
2022-12-27T21:41:39.498Z,50.72
2022-12-27T21:44:07.476Z,50.78
2022-12-27T21:46:39.831Z,50.80
2022-12-27T21:49:11.029Z,51.19
2022-12-27T21:51:40.493Z,50.93
2022-12-27T21:54:09.809Z,51.19
2022-12-27T21:56:39.166Z,51.16
2022-12-27T21:59:11.000Z,51.07
2022-12-27T22:01:50.152Z,50.96
2022-12-27T22:04:21.611Z,50.78
2022-12-27T22:06:49.637Z,51.32
2022-12-27T22:09:19.512Z,51.65
2022-12-27T22:11:48.328Z,51.59
2022-12-27T22:14:16.423Z,51.25
2022-12-27T22:16:44.309Z,51.62
2022-12-27T22:19:13.338Z,51.64
2022-12-27T22:21:42.658Z,51.64
2022-12-27T22:24:15.496Z,51.50
2022-12-27T22:26:43.288Z,51.28
2022-12-27T22:29:12.160Z,51.79
2022-12-27T22:31:40.399Z,51.30
2022-12-27T22:34:08.132Z,51.44
2022-12-27T22:36:36.344Z,51.73
2022-12-27T22:39:04.340Z,51.92
2022-12-27T22:41:35.794Z,51.92
2022-12-27T22:44:11.481Z,51.81
2022-12-27T22:49:28.113Z,52.14
2022-12-27T22:51:55.865Z,52.08
2022-12-27T22:55:03.023Z,51.85
2022-12-27T22:57:11.489Z,52.05
2022-12-27T22:59:39.351Z,52.02
2022-12-27T23:02:07.214Z,52.10
2022-12-27T23:04:35.241Z,52.27
2022-12-27T23:07:03.362Z,52.44
2022-12-27T23:09:31.100Z,52.15
2022-12-27T23:11:58.926Z,52.08
2022-12-27T23:14:26.956Z,52.36
2022-12-27T23:16:54.702Z,52.24
2022-12-27T23:19:24.342Z,52.07
2022-12-27T23:21:52.104Z,52.33
2022-12-27T23:24:19.837Z,52.44
2022-12-27T23:26:47.743Z,52.39
2022-12-27T23:29:15.938Z,52.23
2022-12-27T23:31:54.247Z,52.30
2022-12-27T23:34:28.299Z,52.25
2022-12-27T23:37:00.143Z,51.86
2022-12-27T23:39:28.879Z,51.87
2022-12-27T23:41:57.011Z,52.11
2022-12-27T23:44:33.371Z,52.20
2022-12-27T23:47:05.940Z,52.43
2022-12-27T23:49:34.626Z,52.80
2022-12-27T23:52:02.804Z,52.51
2022-12-27T23:54:30.645Z,52.42
2022-12-27T23:56:58.447Z,52.64
2022-12-27T23:59:46.185Z,52.35
